Time;durP1;ratioP1;P1;durP2;ratioP2;P2;SDS_P1;SDS_P2;PMS_P1;PMS_P2;Temp;Humidity;BMP_temperature;BMP_pressure;BME280_temperature;BME280_humidity;BME280_pressure;Samples;Min_cycle;Max_cycle;Signal;HPM_P1;HPM_P2
2022/01/10 00:00:45;;;;;;;;;;;;;;;20.14;41.58;100887.28;4987295;28;19928;-90
2022/01/10 00:03:11;;;;;;;;;;;;;;;20.13;41.75;100896.59;4992816;28;20061;-90
2022/01/10 00:05:36;;;;;;;;;;;;;;;20.12;41.70;100898.53;5008494;28;20362;-89
2022/01/10 00:08:04;;;;;;;;;;;;;;;20.11;41.82;100899.66;4992444;28;20014;-90
2022/01/10 00:10:30;;;;;;;;;;;;;;;20.09;41.55;100899.94;4981080;28;19970;-89
2022/01/10 00:12:55;;;;;;;;;;;;;;;20.08;41.48;100895.59;4992388;28;19917;-91
2022/01/10 00:15:21;;;;;;;;;;;;;;;20.08;41.33;100902.97;4993887;28;19925;-91
2022/01/10 00:17:46;;;;;;;;;;;;;;;20.07;41.48;100904.91;5008683;28;19976;-91
2022/01/10 00:20:15;;;;;;;;;;;;;;;20.06;41.32;100902.50;5004827;28;20013;-90
2022/01/10 00:22:45;;;;;;;;;;;;;;;20.06;41.45;100907.97;4988090;28;19947;-91
2022/01/10 00:25:11;;;;;;;;;;;;;;;20.04;41.46;100913.75;4994857;28;20012;-91
2022/01/10 00:27:37;;;;;;;;;;;;;;;20.04;41.24;100912.94;4993477;28;19989;-90
2022/01/10 00:30:02;;;;;;;;;;;;;;;20.02;41.15;100918.72;4993351;28;19985;-90
2022/01/10 00:32:27;;;;;;;;;;;;;;;20.02;41.23;100926.94;4992859;28;19921;-91
2022/01/10 00:34:53;;;;;;;;;;;;;;;20.00;41.29;100940.13;4992391;28;19933;-91
2022/01/10 00:37:18;;;;;;;;;;;;;;;20.00;41.23;100942.06;5008362;28;20318;-92
2022/01/10 00:39:43;;;;;;;;;;;;;;;19.98;41.24;100936.91;4994174;28;19926;-91
2022/01/10 00:42:09;;;;;;;;;;;;;;;19.97;41.38;100939.94;4990857;28;19926;-92
2022/01/10 00:44:39;;;;;;;;;;;;;;;19.96;41.34;100939.13;4981789;28;19922;-85
2022/01/10 00:47:04;;;;;;;;;;;;;;;19.95;41.20;100944.91;5013018;28;19921;-92
2022/01/10 00:49:30;;;;;;;;;;;;;;;19.94;41.10;100943.28;4995941;28;20625;-92
2022/01/10 00:51:55;;;;;;;;;;;;;;;19.93;41.00;100944.38;4996574;28;19929;-92
2022/01/10 00:54:20;;;;;;;;;;;;;;;19.91;41.14;100938.38;4997193;28;19929;-92
2022/01/10 00:56:45;;;;;;;;;;;;;;;19.90;41.13;100943.06;4995550;28;19929;-92
2022/01/10 00:59:11;;;;;;;;;;;;;;;19.89;41.05;100944.19;4996026;28;20372;-90
2022/01/10 01:01:36;;;;;;;;;;;;;;;19.88;41.04;100945.28;4988631;28;19952;-89
2022/01/10 01:04:02;;;;;;;;;;;;;;;19.86;40.94;100959.31;4982734;28;20008;-92
2022/01/10 01:06:28;;;;;;;;;;;;;;;19.85;41.10;100965.06;4997413;28;19962;-92
2022/01/10 01:08:58;;;;;;;;;;;;;;;19.84;40.95;100977.16;4994895;28;20342;-90
2022/01/10 01:14:10;;;;;;;;;;;;;;;19.82;40.97;100985.69;5004341;28;20023;-93
2022/01/10 01:24:28;;;;;;;;;;;;;;;19.77;40.80;101007.69;4994279;28;20390;-90
2022/01/10 01:26:54;;;;;;;;;;;;;;;19.76;40.92;101014.28;5011532;28;19926;-92
2022/01/10 01:29:21;;;;;;;;;;;;;;;19.76;40.85;101016.22;4981164;28;19921;-93
2022/01/10 01:31:46;;;;;;;;;;;;;;;19.74;40.78;101011.03;4992774;28;19925;-91
2022/01/10 01:34:13;;;;;;;;;;;;;;;19.73;40.66;101020.38;5009298;28;19921;-92
2022/01/10 01:36:38;;;;;;;;;;;;;;;19.72;40.86;101024.22;4995733;28;19921;-93
2022/01/10 01:39:10;;;;;;;;;;;;;;;19.71;40.79;101025.34;4982192;28;19937;-92
2022/01/10 01:41:40;;;;;;;;;;;;;;;19.71;40.49;101030.00;4991339;28;19918;-94
2022/01/10 01:44:05;;;;;;;;;;;;;;;19.69;40.51;101029.50;4991712;28;19961;-93
2022/01/10 01:46:32;;;;;;;;;;;;;;;19.68;40.75;101031.41;4992203;28;19952;-94
2022/01/10 01:48:58;;;;;;;;;;;;;;;19.66;40.48;101034.41;4998941;28;20004;-95
2022/01/10 01:51:23;;;;;;;;;;;;;;;19.65;40.61;101034.69;4995011;28;19961;-93
2022/01/10 01:53:49;;;;;;;;;;;;;;;19.64;40.60;101046.78;4993718;28;19921;-92
2022/01/10 01:56:15;;;;;;;;;;;;;;;19.63;40.47;101047.88;4994189;28;20016;-92
2022/01/10 01:58:41;;;;;;;;;;;;;;;19.61;40.71;101055.59;4994856;28;19922;-92
2022/01/10 02:01:06;;;;;;;;;;;;;;;19.60;40.60;101059.44;4993300;28;19948;-92
2022/01/10 02:03:38;;;;;;;;;;;;;;;19.59;40.78;101050.41;4979214;28;19925;-92
2022/01/10 02:06:03;;;;;;;;;;;;;;;19.57;40.79;101060.03;4980601;28;20440;-92
2022/01/10 02:08:29;;;;;;;;;;;;;;;19.57;40.67;101068.25;4978548;28;19929;-92
2022/01/10 02:10:54;;;;;;;;;;;;;;;19.55;40.57;101078.69;4995205;28;20390;-92
2022/01/10 02:13:19;;;;;;;;;;;;;;;19.54;40.64;101079.81;5011243;28;19992;-93
2022/01/10 02:15:51;;;;;;;;;;;;;;;19.51;40.57;101080.41;4993882;28;20023;-89
2022/01/10 02:18:17;;;;;;;;;;;;;;;19.51;40.50;101077.66;4995190;28;19922;-92
2022/01/10 02:20:43;;;;;;;;;;;;;;;19.50;40.50;101079.56;4994876;28;19922;-92
2022/01/10 02:23:08;;;;;;;;;;;;;;;19.49;40.54;101077.13;4994800;28;19940;-91
2022/01/10 02:25:34;;;;;;;;;;;;;;;19.47;40.61;101099.34;4990527;28;19922;-90
2022/01/10 02:28:00;;;;;;;;;;;;;;;19.46;40.58;101100.47;5009810;28;19922;-91
2022/01/10 02:30:25;;;;;;;;;;;;;;;19.45;40.46;101110.59;4990675;28;19925;-92
2022/01/10 02:32:51;;;;;;;;;;;;;;;19.44;40.48;101114.44;4993321;28;19944;-91
2022/01/10 02:35:24;;;;;;;;;;;;;;;19.43;40.59;101115.56;4994774;28;19918;-89
2022/01/10 02:37:51;;;;;;;;;;;;;;;19.41;40.61;101117.78;4995001;28;19922;-92
2022/01/10 02:40:19;;;;;;;;;;;;;;;19.40;40.64;101124.38;4993611;28;19922;-91
2022/01/10 02:42:44;;;;;;;;;;;;;;;19.41;40.57;101136.13;4995808;28;20386;-92
2022/01/10 02:45:10;;;;;;;;;;;;;;;19.39;40.45;101135.59;4978604;28;19960;-93
2022/01/10 02:47:36;;;;;;;;;;;;;;;19.37;40.56;101133.16;5007123;28;19926;-93
2022/01/10 02:50:01;;;;;;;;;;;;;;;19.37;40.59;101138.63;5005413;28;19927;-92
2022/01/10 02:52:26;;;;;;;;;;;;;;;19.37;40.39;101146.03;4993645;28;19925;-91
2022/01/10 02:54:53;;;;;;;;;;;;;;;19.34;40.59;101150.19;4994894;28;20337;-92
2022/01/10 02:57:18;;;;;;;;;;;;;;;19.34;40.39;101163.88;4988576;28;19933;-92
2022/01/10 02:59:43;;;;;;;;;;;;;;;19.33;40.39;101162.25;4988259;28;19926;-90
2022/01/10 03:02:10;;;;;;;;;;;;;;;19.33;40.41;101172.41;4990095;28;20373;-89
2022/01/10 03:04:36;;;;;;;;;;;;;;;19.31;40.34;101177.34;4992476;28;19980;-92
2022/01/10 03:07:01;;;;;;;;;;;;;;;19.31;40.42;101178.16;4987289;28;20037;-93
2022/01/10 03:09:26;;;;;;;;;;;;;;;19.29;40.33;101183.09;4986978;28;19918;-92
2022/01/10 03:11:53;;;;;;;;;;;;;;;19.28;40.52;101176.00;4993119;28;19922;-90
2022/01/10 03:14:18;;;;;;;;;;;;;;;19.28;40.35;101178.75;4995078;28;19926;-93
2022/01/10 03:16:44;;;;;;;;;;;;;;;19.28;40.43;101186.13;4990991;28;19926;-90
2022/01/10 03:19:09;;;;;;;;;;;;;;;19.26;40.54;101194.66;4992592;28;19918;-91
2022/01/10 03:21:35;;;;;;;;;;;;;;;19.26;40.26;101200.13;4977636;28;20396;-90
2022/01/10 03:24:00;;;;;;;;;;;;;;;19.24;40.49;101194.94;4978767;28;19933;-92
2022/01/10 03:26:27;;;;;;;;;;;;;;;19.24;40.42;101191.38;4998144;28;19926;-91
2022/01/10 03:28:52;;;;;;;;;;;;;;;19.23;40.29;101198.78;4982039;28;19925;-84
2022/01/10 03:31:18;;;;;;;;;;;;;;;19.22;40.20;101194.41;5010209;28;19944;-91
2022/01/10 03:33:44;;;;;;;;;;;;;;;19.21;40.31;101206.47;4968557;28;19969;-91
2022/01/10 03:36:09;;;;;;;;;;;;;;;19.21;40.33;101214.69;4993064;28;19922;-90
2022/01/10 03:38:34;;;;;;;;;;;;;;;19.20;40.14;101223.19;4993582;28;19930;-90
2022/01/10 03:40:59;;;;;;;;;;;;;;;19.19;40.38;101216.06;4991956;28;19969;-90
2022/01/10 03:43:25;;;;;;;;;;;;;;;19.18;40.20;101239.91;4992466;28;20374;-89
2022/01/10 03:45:50;;;;;;;;;;;;;;;19.18;40.40;101241.84;4993821;28;19925;-91
2022/01/10 03:48:15;;;;;;;;;;;;;;;19.16;40.18;101242.13;5003821;28;19933;-89
2022/01/10 03:50:41;;;;;;;;;;;;;;;19.16;40.41;101242.13;4969851;28;19984;-90
2022/01/10 03:53:06;;;;;;;;;;;;;;;19.15;40.32;101242.41;4993632;28;19972;-89
2022/01/10 03:55:31;;;;;;;;;;;;;;;19.15;40.24;101248.72;4982819;28;19989;-90
2022/01/10 03:57:57;;;;;;;;;;;;;;;19.13;40.28;101250.09;4983310;28;20009;-90
2022/01/10 04:00:22;;;;;;;;;;;;;;;19.13;40.30;101258.31;5005793;28;20294;-89
2022/01/10 04:02:55;;;;;;;;;;;;;;;19.12;40.23;101257.47;4982613;28;19918;-89
2022/01/10 04:05:20;;;;;;;;;;;;;;;19.12;40.24;101256.66;4985434;28;19933;-88
2022/01/10 04:07:46;;;;;;;;;;;;;;;19.11;40.14;101260.53;4993173;28;20378;-90
2022/01/10 04:10:11;;;;;;;;;;;;;;;19.10;40.17;101267.09;4990877;28;20265;-90
2022/01/10 04:12:36;;;;;;;;;;;;;;;19.09;40.27;101273.69;5010544;28;20366;-89
2022/01/10 04:15:03;;;;;;;;;;;;;;;19.08;40.27;101272.88;5014421;28;19976;-89
2022/01/10 04:17:28;;;;;;;;;;;;;;;19.08;40.12;101285.75;5009683;28;20358;-89
2022/01/10 04:19:54;;;;;;;;;;;;;;;19.06;40.38;101283.28;5003298;28;20020;-89
2022/01/10 04:22:19;;;;;;;;;;;;;;;19.07;40.14;101292.31;5005975;28;20337;-89
2022/01/10 04:24:44;;;;;;;;;;;;;;;19.05;40.24;101291.78;4995480;28;20322;-92
2022/01/10 04:27:10;;;;;;;;;;;;;;;19.04;40.29;101285.47;5004517;28;20374;-91
2022/01/10 04:29:35;;;;;;;;;;;;;;;19.03;40.17;101281.13;4993411;28;19957;-91
2022/01/10 04:32:01;;;;;;;;;;;;;;;19.02;40.10;101295.91;4998751;28;19922;-90
2022/01/10 04:34:26;;;;;;;;;;;;;;;19.02;40.31;101298.63;5009331;28;19948;-90
2022/01/10 04:36:51;;;;;;;;;;;;;;;19.01;40.28;101306.03;5008497;28;19930;-91
2022/01/10 04:39:16;;;;;;;;;;;;;;;19.00;40.03;101320.03;5008599;28;19932;-88
2022/01/10 04:41:42;;;;;;;;;;;;;;;18.99;40.00;101330.16;4992148;28;19929;-90
2022/01/10 04:44:07;;;;;;;;;;;;;;;18.99;40.37;101335.63;4992075;28;19972;-91
2022/01/10 04:46:33;;;;;;;;;;;;;;;18.98;40.19;101328.53;4991678;28;19964;-91
2022/01/10 04:49:00;;;;;;;;;;;;;;;18.97;40.13;101329.59;4993636;28;20374;-90
2022/01/10 04:51:27;;;;;;;;;;;;;;;18.97;40.30;101339.75;4998375;28;20085;-90
2022/01/10 04:53:53;;;;;;;;;;;;;;;18.96;40.26;101346.34;4988127;28;19937;-91
2022/01/10 04:56:19;;;;;;;;;;;;;;;18.96;40.27;101349.06;4993021;28;19922;-90
2022/01/10 04:58:45;;;;;;;;;;;;;;;18.94;40.15;101360.28;4992640;28;19918;-89
2022/01/10 05:01:11;;;;;;;;;;;;;;;18.94;40.32;101363.03;4988635;28;19928;-90
2022/01/10 05:03:36;;;;;;;;;;;;;;;18.93;40.21;101372.34;4991712;28;19918;-90
2022/01/10 05:06:02;;;;;;;;;;;;;;;18.93;40.15;101374.28;5008351;28;19925;-90
2022/01/10 05:08:27;;;;;;;;;;;;;;;18.92;40.08;101384.38;4991434;28;19926;-90
2022/01/10 05:10:53;;;;;;;;;;;;;;;18.91;40.25;101384.69;5008325;28;19932;-90
2022/01/10 05:13:20;;;;;;;;;;;;;;;18.91;39.91;101398.38;4991891;28;20446;-91
2022/01/10 05:15:46;;;;;;;;;;;;;;;18.90;40.18;101392.09;4993688;28;20370;-91
2022/01/10 05:18:12;;;;;;;;;;;;;;;18.89;40.23;101392.38;4992679;28;19930;-90
2022/01/10 05:20:37;;;;;;;;;;;;;;;18.89;40.25;101401.38;4992203;28;19957;-91
2022/01/10 05:23:03;;;;;;;;;;;;;;;18.88;40.17;101399.75;4990527;28;19926;-90
2022/01/10 05:25:28;;;;;;;;;;;;;;;18.88;40.29;101404.44;5001929;28;19926;-88
2022/01/10 05:27:53;;;;;;;;;;;;;;;18.87;40.12;101408.25;5011426;28;20052;-89
2022/01/10 05:30:18;;;;;;;;;;;;;;;18.87;40.02;101421.94;4988706;28;19930;-90
2022/01/10 05:32:44;;;;;;;;;;;;;;;18.86;40.12;101420.31;4986778;28;19949;-90
2022/01/10 05:35:09;;;;;;;;;;;;;;;18.85;40.04;101422.22;4985527;28;19973;-90
2022/01/10 05:37:34;;;;;;;;;;;;;;;18.84;40.24;101426.06;5011355;28;19930;-91
2022/01/10 05:39:59;;;;;;;;;;;;;;;18.84;40.31;101434.25;4995729;28;19930;-90
2022/01/10 05:42:25;;;;;;;;;;;;;;;18.83;40.02;101445.50;4995286;28;19929;-89
2022/01/10 05:44:50;;;;;;;;;;;;;;;18.82;40.15;101444.66;4995559;28;19922;-90
2022/01/10 05:47:15;;;;;;;;;;;;;;;18.83;40.20;101451.00;5000729;28;19972;-89
2022/01/10 05:49:46;;;;;;;;;;;;;;;18.82;39.98;101444.66;5006406;28;20017;-91
2022/01/10 05:52:11;;;;;;;;;;;;;;;18.81;40.07;101456.72;4991566;28;20279;-89
2022/01/10 05:54:37;;;;;;;;;;;;;;;18.80;40.07;101458.66;4982874;28;19990;-89
2022/01/10 05:57:03;;;;;;;;;;;;;;;18.80;40.22;101453.19;5010881;28;19947;-90
2022/01/10 05:59:29;;;;;;;;;;;;;;;18.80;40.29;101455.09;5010612;28;19926;-90
2022/01/10 06:01:54;;;;;;;;;;;;;;;18.79;40.15;101459.72;5011290;28;19922;-89
2022/01/10 06:04:19;;;;;;;;;;;;;;;18.79;40.17;101473.41;4993049;28;19964;-90
2022/01/10 06:06:44;;;;;;;;;;;;;;;18.78;40.20;101471.78;4981812;28;20000;-90
2022/01/10 06:09:10;;;;;;;;;;;;;;;18.77;40.21;101472.91;5008204;28;19928;-88
2022/01/10 06:11:35;;;;;;;;;;;;;;;18.77;40.00;101486.59;4995614;28;19922;-90
2022/01/10 06:14:00;;;;;;;;;;;;;;;18.77;40.15;101488.47;4980469;28;19969;-91
2022/01/10 06:16:26;;;;;;;;;;;;;;;18.76;40.14;101487.66;4995604;28;20024;-91
2022/01/10 06:18:51;;;;;;;;;;;;;;;18.76;40.14;101495.06;5010707;28;20392;-90
2022/01/10 06:21:16;;;;;;;;;;;;;;;18.76;40.14;101511.50;5000579;28;19922;-94
2022/01/10 06:23:41;;;;;;;;;;;;;;;18.75;40.07;101516.16;5005110;28;19930;-92
2022/01/10 06:26:07;;;;;;;;;;;;;;;18.75;40.17;101523.53;4982911;28;19922;-92
2022/01/10 06:28:32;;;;;;;;;;;;;;;18.75;40.01;101520.78;4975492;28;19930;-91
2022/01/10 06:30:57;;;;;;;;;;;;;;;18.75;40.09;101526.25;5000772;28;20004;-94
2022/01/10 06:33:22;;;;;;;;;;;;;;;18.74;40.30;101525.41;4994751;28;19930;-95
2022/01/10 06:35:48;;;;;;;;;;;;;;;18.74;40.37;101541.03;4989511;28;19918;-86
2022/01/10 06:38:13;;;;;;;;;;;;;;;18.74;40.46;101543.75;4983428;28;20286;-82
2022/01/10 06:40:38;;;;;;;;;;;;;;;18.74;40.72;101552.78;4993724;28;19988;-84
2022/01/10 06:43:04;;;;;;;;;;;;;;;18.74;40.83;101552.78;4993841;28;19929;-83
2022/01/10 06:45:30;;;;;;;;;;;;;;;18.75;40.76;101559.09;4979868;28;19922;-84
2022/01/10 06:47:55;;;;;;;;;;;;;;;18.75;40.97;101553.63;4992583;28;19932;-85
2022/01/10 06:50:20;;;;;;;;;;;;;;;18.74;40.93;101550.03;4992204;28;19917;-84
2022/01/10 06:52:46;;;;;;;;;;;;;;;18.74;40.95;101555.50;4969824;28;20008;-82
2022/01/10 06:55:11;;;;;;;;;;;;;;;18.74;40.85;101563.72;4994851;28;20020;-85
2022/01/10 06:57:36;;;;;;;;;;;;;;;18.74;40.99;101571.13;4994330;28;19929;-84
2022/01/10 07:00:03;;;;;;;;;;;;;;;18.73;41.12;101567.56;5005690;28;19930;-83
2022/01/10 07:02:28;;;;;;;;;;;;;;;18.73;41.11;101564.03;4993206;28;20008;-84
2022/01/10 07:04:55;;;;;;;;;;;;;;;18.73;40.95;101572.22;4992494;28;19921;-83
2022/01/10 07:07:20;;;;;;;;;;;;;;;18.73;40.99;101580.44;4991377;28;19922;-83
2022/01/10 07:09:45;;;;;;;;;;;;;;;18.73;41.05;101596.88;4991747;28;19917;-84
2022/01/10 07:12:11;;;;;;;;;;;;;;;18.72;40.90;101603.41;4993643;28;19926;-84
2022/01/10 07:14:37;;;;;;;;;;;;;;;18.71;40.96;101605.34;4991435;28;20588;-87
2022/01/10 07:17:02;;;;;;;;;;;;;;;18.71;41.11;101619.03;4992031;28;19929;-84
2022/01/10 07:19:27;;;;;;;;;;;;;;;18.71;41.17;101624.50;4993254;28;19960;-85
2022/01/10 07:21:53;;;;;;;;;;;;;;;18.72;41.13;101625.31;5008189;28;19921;-84
2022/01/10 07:24:18;;;;;;;;;;;;;;;18.70;41.07;101628.34;4993223;28;20374;-82
2022/01/10 07:26:43;;;;;;;;;;;;;;;18.68;40.93;101635.19;5007021;28;19932;-82
2022/01/10 07:29:11;;;;;;;;;;;;;;;18.63;40.72;101638.75;4976159;28;20359;-82
2022/01/10 07:31:37;;;;;;;;;;;;;;;18.60;40.81;101644.78;4977637;28;20021;-83
2022/01/10 07:34:03;;;;;;;;;;;;;;;18.55;40.96;101655.72;4986123;28;20013;-81
2022/01/10 07:36:29;;;;;;;;;;;;;;;18.51;40.98;101666.38;4988027;28;19918;-80
2022/01/10 07:38:54;;;;;;;;;;;;;;;18.50;40.98;101681.16;4981530;28;19926;-80
2022/01/10 07:41:19;;;;;;;;;;;;;;;18.51;41.21;101684.72;4986143;28;19984;-84
2022/01/10 07:43:44;;;;;;;;;;;;;;;18.51;41.27;101684.72;4976329;28;20017;-84
2022/01/10 07:46:11;;;;;;;;;;;;;;;18.54;41.49;101686.88;4972247;28;19926;-86
2022/01/10 07:48:37;;;;;;;;;;;;;;;18.58;41.67;101697.03;5000862;28;20349;-81
2022/01/10 07:51:03;;;;;;;;;;;;;;;18.62;41.72;101701.94;4995338;28;19930;-84
2022/01/10 07:53:29;;;;;;;;;;;;;;;18.66;41.99;101708.53;4973523;28;20367;-83
2022/01/10 07:55:54;;;;;;;;;;;;;;;18.69;42.04;101711.53;4985161;28;19921;-85
2022/01/10 07:58:20;;;;;;;;;;;;;;;18.73;42.05;101709.88;4987095;28;20375;-82
2022/01/10 08:00:45;;;;;;;;;;;;;;;18.78;42.04;101729.06;4998645;28;20012;-82
2022/01/10 08:03:10;;;;;;;;;;;;;;;18.83;42.22;101724.72;4983411;28;19922;-82
2022/01/10 08:05:36;;;;;;;;;;;;;;;18.88;42.17;101730.19;4982702;28;19929;-86
2022/01/10 08:08:01;;;;;;;;;;;;;;;18.91;42.34;101733.19;4990963;28;20287;-85
2022/01/10 08:10:26;;;;;;;;;;;;;;;18.96;42.19;101738.66;4985846;28;19926;-83
2022/01/10 08:12:52;;;;;;;;;;;;;;;19.00;42.07;101752.63;4977667;28;20013;-88
2022/01/10 08:15:17;;;;;;;;;;;;;;;19.04;42.22;101745.50;4980006;28;19933;-87
2022/01/10 08:17:44;;;;;;;;;;;;;;;19.07;42.32;101760.53;4985241;28;20390;-91
2022/01/10 08:20:09;;;;;;;;;;;;;;;19.11;42.45;101770.69;4983772;28;19922;-91
2022/01/10 08:22:35;;;;;;;;;;;;;;;19.14;42.15;101767.38;4986649;28;20389;-94
2022/01/10 08:25:00;;;;;;;;;;;;;;;19.17;42.30;101774.22;4974304;28;19949;-86
2022/01/10 08:27:25;;;;;;;;;;;;;;;19.19;42.33;101777.53;4975182;28;20025;-85
2022/01/10 08:29:51;;;;;;;;;;;;;;;19.22;42.36;101785.19;4984436;28;20391;-81
2022/01/10 08:32:17;;;;;;;;;;;;;;;19.26;42.13;101783.53;4974155;28;19930;-83
2022/01/10 08:34:42;;;;;;;;;;;;;;;19.28;42.28;101786.84;5002338;28;20549;-84
2022/01/10 08:37:07;;;;;;;;;;;;;;;19.30;42.19;101792.00;4999695;28;20008;-83
2022/01/10 08:39:33;;;;;;;;;;;;;;;19.31;42.41;101797.22;4985105;28;19930;-86
2022/01/10 08:42:00;;;;;;;;;;;;;;;19.34;42.26;101795.84;4992205;28;19919;-84
2022/01/10 08:44:26;;;;;;;;;;;;;;;19.36;42.19;101804.63;4989209;28;19957;-85
2022/01/10 08:46:51;;;;;;;;;;;;;;;19.39;42.16;101817.78;4994218;28;19997;-82
2022/01/10 08:49:16;;;;;;;;;;;;;;;19.39;42.11;101818.59;4984691;28;19976;-82
2022/01/10 08:51:42;;;;;;;;;;;;;;;19.41;42.19;101823.81;4984829;28;19948;-81
2022/01/10 08:54:08;;;;;;;;;;;;;;;19.42;41.92;101837.22;4977834;28;19921;-81
2022/01/10 08:56:33;;;;;;;;;;;;;;;19.44;42.01;101843.25;4979032;28;20560;-82
2022/01/10 08:58:59;;;;;;;;;;;;;;;19.45;41.88;101833.09;4970158;28;19928;-80
2022/01/10 09:01:26;;;;;;;;;;;;;;;19.46;41.98;101835.56;4992282;28;19918;-86
2022/01/10 09:03:52;;;;;;;;;;;;;;;19.49;41.89;101836.13;4975468;28;20285;-84
2022/01/10 09:06:17;;;;;;;;;;;;;;;19.50;41.95;101837.75;4985697;28;20020;-85
2022/01/10 09:08:43;;;;;;;;;;;;;;;19.51;41.88;101839.41;4988207;28;20802;-80
2022/01/10 09:11:08;;;;;;;;;;;;;;;19.52;41.83;101861.03;4976716;28;20290;-81
2022/01/10 09:13:34;;;;;;;;;;;;;;;19.53;41.87;101862.69;4984615;28;20025;-82
2022/01/10 09:16:02;;;;;;;;;;;;;;;19.55;41.76;101865.16;4982396;28;19926;-81
2022/01/10 09:18:27;;;;;;;;;;;;;;;19.55;41.63;101856.94;5001361;28;19928;-84
2022/01/10 09:20:52;;;;;;;;;;;;;;;19.57;41.58;101858.28;4985713;28;19922;-86
2022/01/10 09:23:18;;;;;;;;;;;;;;;19.57;41.54;101865.69;4987573;28;19926;-84
2022/01/10 09:25:44;;;;;;;;;;;;;;;19.57;41.58;101869.25;4988629;28;19941;-86
2022/01/10 09:28:10;;;;;;;;;;;;;;;19.58;41.68;101870.91;5005167;28;19941;-86
2022/01/10 09:30:35;;;;;;;;;;;;;;;19.60;41.57;101878.84;4978023;28;19922;-86
2022/01/10 09:33:00;;;;;;;;;;;;;;;19.60;41.54;101876.91;4984959;28;19922;-86
2022/01/10 09:35:26;;;;;;;;;;;;;;;19.61;41.69;101884.06;4987548;28;19929;-86
2022/01/10 09:37:51;;;;;;;;;;;;;;;19.62;41.32;101891.19;4987739;28;19929;-86
2022/01/10 09:40:18;;;;;;;;;;;;;;;19.64;41.65;101896.41;5002023;28;19929;-83
2022/01/10 09:42:43;;;;;;;;;;;;;;;19.66;41.49;101892.28;4980250;28;20250;-85
2022/01/10 09:45:09;;;;;;;;;;;;;;;19.66;41.31;101905.16;4990387;28;19919;-84
2022/01/10 09:47:34;;;;;;;;;;;;;;;19.68;41.42;101908.50;4981693;28;20378;-87
2022/01/10 09:50:00;;;;;;;;;;;;;;;19.69;41.22;101910.13;4985607;28;19972;-88
2022/01/10 09:52:26;;;;;;;;;;;;;;;19.71;41.12;101912.59;4986898;28;19957;-88
2022/01/10 09:54:53;;;;;;;;;;;;;;;19.72;41.07;101914.22;4990678;28;20036;-88
2022/01/10 09:57:19;;;;;;;;;;;;;;;19.73;41.42;101919.44;4984306;28;20022;-85
2022/01/10 09:59:44;;;;;;;;;;;;;;;19.74;41.10;101929.31;4993048;28;20013;-83
2022/01/10 10:02:10;;;;;;;;;;;;;;;19.75;40.97;101943.84;4990291;28;19922;-82
2022/01/10 10:04:36;;;;;;;;;;;;;;;19.77;40.82;101942.47;4977733;28;19921;-85
2022/01/10 10:07:01;;;;;;;;;;;;;;;19.79;40.68;101944.94;4999638;28;19953;-86
2022/01/10 10:09:27;;;;;;;;;;;;;;;19.80;40.71;101955.59;4993020;28;20363;-80
2022/01/10 10:11:53;;;;;;;;;;;;;;;19.81;40.57;101954.53;4986062;28;20445;-87
2022/01/10 10:14:20;;;;;;;;;;;;;;;19.83;40.53;101962.47;4980636;28;19922;-81
2022/01/10 10:16:50;;;;;;;;;;;;;;;19.83;40.38;101974.28;5002094;28;20382;-93
2022/01/10 10:19:16;;;;;;;;;;;;;;;19.85;40.46;101980.28;4989264;28;19937;-91
2022/01/10 10:21:41;;;;;;;;;;;;;;;19.88;40.08;101984.38;5003857;28;20318;-88
2022/01/10 10:24:07;;;;;;;;;;;;;;;19.88;40.30;101987.97;4993871;28;20064;-86
2022/01/10 10:26:32;;;;;;;;;;;;;;;19.89;40.17;101992.34;4987701;28;19960;-87
2022/01/10 10:28:58;;;;;;;;;;;;;;;19.91;40.11;102000.31;4984731;28;19922;-88
2022/01/10 10:31:25;;;;;;;;;;;;;;;19.93;39.97;101997.28;4984474;28;19930;-84
2022/01/10 10:33:52;;;;;;;;;;;;;;;19.94;40.22;101999.75;4990267;28;19925;-83
2022/01/10 10:36:17;;;;;;;;;;;;;;;19.96;40.26;101999.47;4990399;28;19926;-82
2022/01/10 10:38:42;;;;;;;;;;;;;;;19.97;39.88;102001.94;4974971;28;20480;-83
2022/01/10 10:41:10;;;;;;;;;;;;;;;19.99;39.80;101996.19;4984661;28;19933;-86
2022/01/10 10:43:37;;;;;;;;;;;;;;;20.00;39.76;102001.38;4988290;28;21369;-86
2022/01/10 10:46:03;;;;;;;;;;;;;;;20.02;39.86;102007.44;4994261;28;19922;-89
2022/01/10 10:48:30;;;;;;;;;;;;;;;20.04;40.09;102009.91;4987807;28;19939;-90
2022/01/10 10:50:57;;;;;;;;;;;;;;;20.05;39.99;102000.56;4987247;28;19933;-91
2022/01/10 10:53:25;;;;;;;;;;;;;;;20.06;39.78;102004.97;4996896;28;19930;-86
2022/01/10 10:55:59;;;;;;;;;;;;;;;20.07;39.70;102012.09;5003137;28;20012;-94
2022/01/10 10:58:25;;;;;;;;;;;;;;;20.09;39.95;102012.66;4992383;28;19923;-85
2022/01/10 11:00:50;;;;;;;;;;;;;;;20.09;39.83;102009.91;4994471;28;20020;-83
2022/01/10 11:03:18;;;;;;;;;;;;;;;20.12;39.69;102024.97;4982988;28;20418;-83
2022/01/10 11:05:44;;;;;;;;;;;;;;;20.13;39.53;102026.63;4972234;28;19930;-85
2022/01/10 11:08:10;;;;;;;;;;;;;;;20.13;39.78;102032.09;4999087;28;19988;-88
2022/01/10 11:10:36;;;;;;;;;;;;;;;20.15;39.71;102038.97;4992634;28;20446;-96
2022/01/10 11:13:01;;;;;;;;;;;;;;;20.15;39.79;102032.66;4976604;28;20001;-89
2022/01/10 11:15:27;;;;;;;;;;;;;;;20.16;39.81;102037.88;4988691;28;20072;-87
2022/01/10 11:17:53;;;;;;;;;;;;;;;20.17;39.51;102046.94;4996087;28;20461;-91
2022/01/10 11:20:20;;;;;;;;;;;;;;;20.17;39.68;102036.78;4985880;28;20306;-86
2022/01/10 11:22:54;;;;;;;;;;;;;;;20.19;39.46;102048.28;4991372;28;19930;-87
2022/01/10 11:25:24;;;;;;;;;;;;;;;20.20;39.34;102043.63;4979547;28;19976;-84
2022/01/10 11:27:50;;;;;;;;;;;;;;;20.21;39.66;102053.50;4988612;28;19922;-85
2022/01/10 11:30:22;;;;;;;;;;;;;;;20.21;39.50;102059.81;4994955;28;19926;-83
2022/01/10 11:32:52;;;;;;;;;;;;;;;20.22;39.61;102066.13;4979346;28;20388;-82
2022/01/10 11:35:18;;;;;;;;;;;;;;;20.22;39.65;102077.91;4982867;28;20342;-84
2022/01/10 11:37:43;;;;;;;;;;;;;;;20.23;39.56;102079.56;4984003;28;20658;-84
2022/01/10 11:40:10;;;;;;;;;;;;;;;20.24;39.54;102086.69;4981820;28;19922;-84
2022/01/10 11:42:56;;;;;;;;;;;;;;;20.24;39.58;102083.13;4984280;28;19940;-83
2022/01/10 11:45:25;;;;;;;;;;;;;;;20.25;39.55;102087.50;4990474;28;20008;-90
2022/01/10 11:48:05;;;;;;;;;;;;;;;20.24;39.32;102086.69;4985234;28;20418;-86
2022/01/10 11:50:30;;;;;;;;;;;;;;;20.25;39.47;102087.50;5004716;28;20219;-81
2022/01/10 11:52:56;;;;;;;;;;;;;;;20.25;39.36;102090.25;4985424;28;19993;-84
2022/01/10 11:55:38;;;;;;;;;;;;;;;20.26;39.29;102094.63;4973668;28;20144;-83
2022/01/10 11:58:17;;;;;;;;;;;;;;;20.25;39.20;102095.75;4995535;28;19929;-83
2022/01/10 12:00:42;;;;;;;;;;;;;;;20.24;39.41;102103.16;4988177;28;19921;-86
2022/01/10 12:03:08;;;;;;;;;;;;;;;20.25;39.37;102096.56;4981802;28;20698;-94
2022/01/10 12:05:33;;;;;;;;;;;;;;;20.26;39.39;102091.91;4982392;28;19922;-83
2022/01/10 12:08:02;;;;;;;;;;;;;;;20.27;39.43;102097.13;4984528;28;19925;-83
2022/01/10 12:10:27;;;;;;;;;;;;;;;20.28;39.53;102097.94;4986195;28;20044;-85
2022/01/10 12:12:59;;;;;;;;;;;;;;;20.27;39.33;102097.13;4969617;28;20017;-86
2022/01/10 12:15:24;;;;;;;;;;;;;;;20.29;39.14;102091.38;4995607;28;19917;-85
2022/01/10 12:17:49;;;;;;;;;;;;;;;20.29;39.40;102100.41;4984338;28;19929;-84
2022/01/10 12:20:14;;;;;;;;;;;;;;;20.30;39.46;102099.31;4975433;28;19918;-88
2022/01/10 12:22:40;;;;;;;;;;;;;;;20.31;39.33;102109.19;4982001;28;19933;-87
2022/01/10 12:25:08;;;;;;;;;;;;;;;20.32;39.40;102110.03;4974771;28;19998;-88
2022/01/10 12:27:35;;;;;;;;;;;;;;;20.32;39.18;102113.56;4985003;28;19926;-86
2022/01/10 12:30:00;;;;;;;;;;;;;;;20.34;39.26;102123.47;4988127;28;20388;-88
2022/01/10 12:32:25;;;;;;;;;;;;;;;20.34;39.40;102124.28;4974958;28;20021;-96
2022/01/10 12:34:52;;;;;;;;;;;;;;;20.35;39.40;102133.34;4989320;28;19941;-81
2022/01/10 12:37:18;;;;;;;;;;;;;;;20.36;39.57;102134.97;5001216;28;19937;-85
2022/01/10 12:39:43;;;;;;;;;;;;;;;20.37;39.41;102133.91;4975651;28;19930;-82